Time;durP1;ratioP1;P1;durP2;ratioP2;P2;SDS_P1;SDS_P2;PMS_P1;PMS_P2;Temp;Humidity;BMP_temperature;BMP_pressure;BME280_temperature;BME280_humidity;BME280_pressure;Samples;Min_cycle;Max_cycle;Signal;HPM_P1;HPM_P2
2022/01/21 00:00:00;;;;;;;1.13;1.13;;;;;;;1.26;54.23;101746.75;683821;28;22415;-67
2022/01/21 00:00:22;;;;;;;1.30;1.30;;;;;;;1.25;54.21;101743.25;685722;28;11129;-67
2022/01/21 00:00:43;;;;;;;1.20;1.20;;;;;;;1.24;54.20;101744.19;684848;28;44204;-67
2022/01/21 00:01:04;;;;;;;1.20;1.20;;;;;;;1.23;54.24;101746.94;685773;28;22309;-68
2022/01/21 00:01:26;;;;;;;1.10;1.10;;;;;;;1.22;54.20;101742.56;685855;28;11585;-67
2022/01/21 00:01:48;;;;;;;1.10;1.10;;;;;;;1.23;54.38;101749.59;684980;28;23541;-67
2022/01/21 00:02:09;;;;;;;0.90;0.90;;;;;;;1.23;54.15;101745.13;684901;28;44324;-68
2022/01/21 00:02:30;;;;;;;0.95;0.95;;;;;;;1.22;54.13;101748.75;684652;28;46327;-68
2022/01/21 00:02:52;;;;;;;1.25;1.25;;;;;;;1.20;54.15;101747.97;685482;28;23451;-67
2022/01/21 00:03:14;;;;;;;1.30;1.30;;;;;;;1.16;54.14;101742.94;685592;28;20101;-68
2022/01/21 00:03:35;;;;;;;1.38;1.38;;;;;;;1.16;54.15;101740.25;685262;28;46391;-67
2022/01/21 00:03:56;;;;;;;1.30;1.30;;;;;;;1.17;54.21;101750.81;686047;28;23868;-67
2022/01/21 00:04:17;;;;;;;1.30;1.30;;;;;;;1.17;54.31;101750.81;685775;28;22015;-68
2022/01/21 00:04:39;;;;;;;1.73;1.73;;;;;;;1.17;54.20;101753.47;684998;28;22401;-67
2022/01/21 00:05:00;;;;;;;1.30;1.30;;;;;;;1.15;54.06;101747.41;685034;28;44396;-68
2022/01/21 00:05:23;;;;;;;1.20;1.20;;;;;;;1.15;54.16;101746.56;685281;28;22462;-68
2022/01/21 00:05:44;;;;;;;1.15;1.15;;;;;;;1.14;54.21;101742.16;683949;28;67547;-67
2022/01/21 00:06:07;;;;;;;1.00;1.00;;;;;;;1.14;54.22;101744.84;685674;28;23465;-68
2022/01/21 00:06:28;;;;;;;1.85;1.85;;;;;;;1.16;54.15;101745.59;684332;28;67346;-68
2022/01/21 00:06:49;;;;;;;2.28;2.28;;;;;;;1.17;54.06;101747.31;684803;28;23987;-67
2022/01/21 00:07:10;;;;;;;3.80;3.70;;;;;;;1.19;53.98;101756.06;685784;28;23286;-67
2022/01/21 00:07:32;;;;;;;8.20;7.90;;;;;;;1.19;54.06;101751.59;685818;28;21121;-68
2022/01/21 00:07:53;;;;;;;11.45;11.05;;;;;;;1.17;54.05;101748.16;684988;28;47425;-68
2022/01/21 00:08:16;;;;;;;9.20;8.90;;;;;;;1.21;53.92;101763.00;685767;28;21520;-68
2022/01/21 00:08:40;;;;;;;8.90;8.60;;;;;;;1.21;53.78;101747.03;684124;28;69612;-68
2022/01/21 00:09:01;;;;;;;16.63;16.02;;;;;;;1.22;53.74;101748.75;682753;28;92352;-68
2022/01/21 00:09:22;;;;;;;18.05;17.35;;;;;;;1.20;53.68;101747.97;685699;28;22399;-67
2022/01/21 00:09:46;;;;;;;16.90;16.30;;;;;;;1.22;53.62;101750.53;685189;28;21939;-68
2022/01/21 00:10:09;;;;;;;14.15;13.65;;;;;;;1.23;53.44;101750.47;683667;28;92257;-70
2022/01/21 00:10:30;;;;;;;17.60;16.92;;;;;;;1.23;53.36;101746.94;684388;28;69416;-67
2022/01/21 00:10:51;;;;;;;18.23;17.52;;;;;;;1.22;53.56;101751.44;686309;28;21514;-67
2022/01/21 00:11:13;;;;;;;12.65;12.25;;;;;;;1.22;53.44;101750.53;685549;28;22388;-68
2022/01/21 00:11:36;;;;;;;23.30;22.35;;;;;;;1.23;53.54;101754.94;685161;28;46440;-68
2022/01/21 00:11:58;;;;;;;24.42;23.42;;;;;;;1.23;53.52;101750.47;683654;28;69485;-67
2022/01/21 00:12:19;;;;;;;19.48;18.70;;;;;;;1.24;53.35;101748.66;685171;28;46354;-67
2022/01/21 00:12:40;;;;;;;18.25;17.55;;;;;;;1.20;53.27;101752.44;686000;28;21347;-67
2022/01/21 00:13:01;;;;;;;47.97;45.72;;;;;;;1.21;53.35;101760.34;682880;28;22395;-68
2022/01/21 00:13:33;;;;;;;24.50;23.50;;;;;;;1.21;53.44;101757.69;682759;28;22408;-67
2022/01/21 00:13:54;;;;;;;12.27;11.88;;;;;;;1.21;53.51;101755.03;679028;28;136924;-67
2022/01/21 00:14:15;;;;;;;9.35;9.05;;;;;;;1.21;53.56;101749.69;683227;28;24170;-67
2022/01/21 00:14:36;;;;;;;13.30;12.85;;;;;;;1.24;53.53;101754.00;682347;28;22539;-68
2022/01/21 00:14:58;;;;;;;17.90;17.17;;;;;;;1.24;53.49;101751.34;684992;28;20908;-68
2022/01/21 00:15:19;;;;;;;15.68;15.07;;;;;;;1.24;53.37;101756.66;684812;28;45350;-68
2022/01/21 00:15:41;;;;;;;12.10;11.70;;;;;;;1.22;53.36;101745.22;685999;28;22511;-68
2022/01/21 00:16:02;;;;;;;16.80;16.20;;;;;;;1.23;53.19;101754.94;685037;28;46614;-68
2022/01/21 00:16:26;;;;;;;24.23;23.23;;;;;;;1.23;53.30;101744.28;684073;28;46344;-68
2022/01/21 00:16:47;;;;;;;56.00;53.45;;;;;;;1.19;52.86;101748.06;683304;28;69368;-67
2022/01/21 00:17:08;;;;;;;61.22;58.42;;;;;;;1.20;52.93;101745.31;685818;28;23468;-67
2022/01/21 00:17:30;;;;;;;34.00;32.55;;;;;;;1.23;53.05;101749.59;686930;28;1645;-67
2022/01/21 00:17:52;;;;;;;10.50;10.13;;;;;;;1.24;53.10;101748.66;685733;28;23357;-67
2022/01/21 00:18:13;;;;;;;4.38;4.28;;;;;;;1.24;53.08;101752.19;684860;28;45371;-67
2022/01/21 00:18:36;;;;;;;13.07;12.63;;;;;;;1.23;53.05;101752.28;685158;28;46381;-67
2022/01/21 00:19:03;;;;;;;5.90;5.72;;;;;;;1.22;52.96;101747.88;684428;28;70187;-68
2022/01/21 00:19:26;;;;;;;8.38;8.10;;;;;;;1.19;52.96;101748.94;684086;28;89741;-67
2022/01/21 00:19:51;;;;;;;10.93;10.63;;;;;;;1.19;52.84;101745.41;685045;28;45254;-67
2022/01/21 00:30:15;;;;;;;32.35;31.02;;;;;;;1.23;52.51;101762.91;679131;28;137767;-66
2022/01/21 00:30:36;;;;;;;33.47;32.10;;;;;;;1.24;52.58;101761.97;679644;28;138030;-68
2022/01/21 00:30:57;;;;;;;123.13;117.18;;;;;;;1.24;52.71;101759.31;682535;28;45342;-67
2022/01/21 00:31:19;;;;;;;62.97;59.80;;;;;;;1.25;52.60;101761.88;682820;28;22281;-68
2022/01/21 00:31:41;;;;;;;2.15;2.15;;;;;;;1.26;52.52;101757.41;682251;28;23518;-68
2022/01/21 00:32:02;;;;;;;2.20;2.20;;;;;;;1.25;52.41;101761.00;683855;28;44577;-68
2022/01/21 00:32:23;;;;;;;20.35;19.20;;;;;;;1.26;52.56;101762.72;683123;28;955;-67
2022/01/21 00:32:47;;;;;;;34.13;32.33;;;;;;;1.26;52.40;101765.41;682602;28;23486;-67
2022/01/21 00:33:08;;;;;;;1.17;1.17;;;;;;;1.28;52.37;101762.66;680368;28;92294;-67
2022/01/21 00:33:29;;;;;;;1.20;1.20;;;;;;;1.28;52.45;101766.16;682584;28;23869;-69
2022/01/21 00:33:51;;;;;;;1.40;1.40;;;;;;;1.29;52.22;101772.34;682751;28;22462;-70
2022/01/21 00:34:12;;;;;;;7.78;7.53;;;;;;;1.29;52.23;101773.19;682072;28;44393;-68
2022/01/21 00:34:33;;;;;;;99.85;94.32;;;;;;;1.28;52.05;101765.31;682680;28;22420;-68
2022/01/21 00:34:54;;;;;;;103.72;98.85;;;;;;;1.30;52.06;101769.59;679316;29;46369;-68
2022/01/21 00:35:18;;;;;;;45.88;43.88;;;;;;;1.30;52.07;101771.38;680758;28;21517;-68
2022/01/21 00:35:39;;;;;;;37.22;35.63;;;;;;;1.30;51.88;101771.38;682365;28;70202;-67
2022/01/21 00:36:00;;;;;;;31.13;29.83;;;;;;;1.31;52.01;101776.63;684227;28;21522;-68
2022/01/21 00:36:21;;;;;;;49.03;46.78;;;;;;;1.31;52.12;101770.44;683429;28;21525;-68
2022/01/21 00:36:42;;;;;;;86.68;82.57;;;;;;;1.31;52.08;101762.47;683622;28;22409;-67
2022/01/21 00:37:04;;;;;;;59.53;56.80;;;;;;;1.26;52.07;101758.25;685072;28;21479;-67
2022/01/21 00:37:26;;;;;;;51.47;49.17;;;;;;;1.28;51.67;101759.97;683810;28;69367;-67
2022/01/21 00:37:48;;;;;;;41.70;39.85;;;;;;;1.29;51.78;101775.00;685200;28;21131;-67
2022/01/21 00:38:09;;;;;;;32.20;30.83;;;;;;;1.28;51.86;101768.81;682931;28;47446;-67
2022/01/21 00:38:33;;;;;;;21.15;20.33;;;;;;;1.30;51.65;101766.06;684213;28;22583;-68
2022/01/21 00:38:55;;;;;;;37.90;36.22;;;;;;;1.28;51.54;101763.50;681638;28;91945;-67
2022/01/21 00:39:20;;;;;;;18.25;17.52;;;;;;;1.27;51.71;101772.44;681963;28;69237;-68
2022/01/21 00:39:45;;;;;;;9.38;9.07;;;;;;;1.27;51.72;101775.09;679982;28;115933;-68
2022/01/21 00:40:09;;;;;;;8.13;7.85;;;;;;;1.23;51.60;101776.22;681759;28;115468;-67
2022/01/21 00:40:33;;;;;;;6.20;6.00;;;;;;;1.22;51.55;101769.19;683537;28;90480;-67
2022/01/21 00:40:57;;;;;;;6.00;5.80;;;;;;;1.23;51.76;101784.22;681400;28;67524;-68
2022/01/21 00:41:22;;;;;;;8.50;8.20;;;;;;;1.22;51.79;101785.13;680490;28;90894;-67
2022/01/21 00:41:54;;;;;;;14.80;14.30;;;;;;;1.23;51.94;101776.22;677428;28;138198;-68
2022/01/21 00:42:34;;;;;;;9.70;9.40;;;;;;;1.23;51.93;101781.53;679008;28;138187;-67
2022/01/21 00:43:11;;;;;;;5.10;5.00;;;;;;;1.23;51.76;101779.72;681087;28;137601;-67
2022/01/21 00:43:43;;;;;;;3.20;3.10;;;;;;;1.26;52.09;101774.22;680748;28;160624;-67
2022/01/21 00:44:05;;;;;;;3.90;3.80;;;;;;;1.28;52.00;101784.78;678698;28;135585;-68
2022/01/21 00:44:26;;;;;;;9.93;9.63;;;;;;;1.28;51.83;101787.44;682562;28;27952;-67
2022/01/21 00:44:48;;;;;;;8.60;8.30;;;;;;;1.26;51.98;101784.88;681526;28;44404;-68
2022/01/21 00:45:12;;;;;;;6.13;5.93;;;;;;;1.25;51.58;101780.53;682611;28;21511;-67
2022/01/21 00:45:34;;;;;;;4.97;4.88;;;;;;;1.26;51.87;101782.22;679872;28;115159;-68
2022/01/21 00:45:55;;;;;;;3.88;3.78;;;;;;;1.25;51.69;101780.53;679547;29;46423;-68
2022/01/21 00:46:16;;;;;;;3.22;3.13;;;;;;;1.25;51.73;101780.53;680326;28;21562;-68
2022/01/21 00:46:37;;;;;;;2.70;2.60;;;;;;;1.24;51.57;101773.47;678900;29;21518;-67
2022/01/21 00:46:59;;;;;;;4.97;4.80;;;;;;;1.25;51.85;101777.84;679538;29;44422;-68
2022/01/21 00:47:20;;;;;;;5.95;5.75;;;;;;;1.25;51.76;101784.97;680482;29;44398;-68
2022/01/21 00:47:43;;;;;;;4.97;4.88;;;;;;;1.26;51.88;101786.69;679367;29;10236;-68
2022/01/21 00:48:04;;;;;;;3.92;3.83;;;;;;;1.26;51.86;101786.69;678810;29;45247;-68
2022/01/21 00:48:26;;;;;;;2.35;2.35;;;;;;;1.26;51.70;101786.69;680197;28;46290;-67
2022/01/21 00:48:48;;;;;;;3.08;2.97;;;;;;;1.26;51.57;101784.03;681439;28;45255;-67
2022/01/21 00:49:09;;;;;;;4.40;4.22;;;;;;;1.25;51.77;101793.81;682424;28;20246;-68
2022/01/21 00:49:30;;;;;;;3.60;3.50;;;;;;;1.26;51.57;101782.22;683122;28;22217;-67
2022/01/21 00:49:52;;;;;;;2.70;2.60;;;;;;;1.27;51.72;101785.75;682529;28;22157;-67
2022/01/21 00:50:14;;;;;;;3.10;3.00;;;;;;;1.19;51.89;101780.88;678953;29;45222;-68
2022/01/21 00:50:35;;;;;;;2.95;2.85;;;;;;;1.26;51.86;101787.53;676653;29;45118;-68
2022/01/21 00:50:57;;;;;;;1.90;1.90;;;;;;;1.26;51.76;101784.03;676944;29;45288;-68
2022/01/21 00:51:18;;;;;;;1.98;1.98;;;;;;;1.25;51.68;101791.16;673964;29;44382;-68
2022/01/21 00:51:39;;;;;;;1.52;1.52;;;;;;;1.27;51.66;101777.75;674949;29;22514;-67
2022/01/21 00:52:00;;;;;;;1.80;1.80;;;;;;;1.28;51.66;101792.75;678393;29;21517;-67
2022/01/21 00:52:21;;;;;;;1.98;1.98;;;;;;;1.28;51.83;101784.78;679814;28;22187;-67
2022/01/21 00:52:43;;;;;;;1.63;1.63;;;;;;;1.28;51.72;101794.59;682821;28;21552;-68
2022/01/21 00:53:04;;;;;;;1.17;1.17;;;;;;;1.29;51.43;101796.31;679568;28;45117;-67
2022/01/21 00:53:25;;;;;;;1.00;1.00;;;;;;;1.24;51.46;101788.59;683044;28;23390;-67
2022/01/21 00:53:49;;;;;;;1.17;1.17;;;;;;;1.28;51.64;101795.44;682891;28;21560;-67
2022/01/21 00:54:10;;;;;;;1.45;1.45;;;;;;;1.27;51.59;101799.06;681093;28;70333;-68
2022/01/21 00:54:31;;;;;;;1.67;1.67;;;;;;;1.29;51.77;101801.63;682745;28;23442;-68
2022/01/21 00:54:52;;;;;;;1.85;1.85;;;;;;;1.28;51.69;101790.09;683302;28;23480;-68
2022/01/21 00:55:13;;;;;;;4.70;4.60;;;;;;;1.28;51.60;101789.25;683213;28;22242;-67
2022/01/21 00:55:35;;;;;;;9.10;8.80;;;;;;;1.28;51.30;101794.59;680296;29;20820;-67
2022/01/21 00:55:56;;;;;;;6.13;5.93;;;;;;;1.29;51.68;101796.31;677263;29;45994;-68
2022/01/21 00:56:17;;;;;;;4.33;4.23;;;;;;;1.30;51.60;101798.00;678552;29;21277;-68
2022/01/21 00:56:39;;;;;;;3.00;2.90;;;;;;;1.29;51.66;101801.63;676828;29;45149;-67
2022/01/21 00:57:00;;;;;;;1.77;1.77;;;;;;;1.25;51.55;101793.81;678937;29;23344;-68
2022/01/21 00:57:21;;;;;;;1.30;1.30;;;;;;;1.29;51.65;101797.16;680646;28;23630;-67
2022/01/21 00:57:42;;;;;;;1.05;1.05;;;;;;;1.28;51.66;101797.25;682658;28;21543;-67
2022/01/21 00:58:04;;;;;;;2.15;2.15;;;;;;;1.29;51.33;101796.31;679454;29;23460;-67
2022/01/21 00:58:25;;;;;;;2.63;2.63;;;;;;;1.28;51.48;101800.75;679436;29;45326;-68
2022/01/21 00:58:46;;;;;;;2.20;2.20;;;;;;;1.28;51.43;101799.91;680074;29;23403;-67
2022/01/21 00:59:08;;;;;;;2.10;2.10;;;;;;;1.28;51.52;101805.22;679941;28;21529;-67
2022/01/21 00:59:30;;;;;;;2.10;2.00;;;;;;;1.29;51.50;101801.63;677450;29;23482;-68
2022/01/21 00:59:51;;;;;;;1.75;1.75;;;;;;;1.29;51.59;101802.47;678785;28;69492;-67
2022/01/21 01:00:13;;;;;;;1.80;1.70;;;;;;;1.28;51.21;101798.09;682021;28;23473;-68
2022/01/21 01:00:36;;;;;;;1.40;1.40;;;;;;;1.29;51.42;101801.63;679490;29;47494;-67
2022/01/21 01:00:57;;;;;;;1.48;1.48;;;;;;;1.27;51.37;101799.06;678920;29;67506;-68
2022/01/21 01:01:18;;;;;;;2.70;2.60;;;;;;;1.28;51.38;101797.25;680676;28;22401;-68
2022/01/21 01:01:39;;;;;;;2.92;2.83;;;;;;;1.30;51.51;101803.31;682766;28;4935;-67
2022/01/21 01:02:01;;;;;;;2.72;2.67;;;;;;;1.29;51.37;101801.63;680378;29;22405;-68
2022/01/21 01:02:23;;;;;;;2.72;2.63;;;;;;;1.29;51.43;101799.81;680044;28;46710;-67
2022/01/21 01:02:44;;;;;;;1.70;1.70;;;;;;;1.28;51.50;101803.41;681727;28;46315;-67
2022/01/21 01:03:06;;;;;;;1.35;1.35;;;;;;;1.30;51.46;101800.66;679917;29;45124;-70
2022/01/21 01:03:28;;;;;;;1.35;1.35;;;;;;;1.31;51.47;101797.06;680475;29;21565;-67
2022/01/21 01:03:49;;;;;;;2.22;2.22;;;;;;;1.30;51.22;101795.34;677545;29;47361;-67
2022/01/21 01:04:10;;;;;;;4.20;4.10;;;;;;;1.30;51.38;101801.53;680351;29;20913;-68
2022/01/21 01:04:31;;;;;;;3.80;3.70;;;;;;;1.27;51.29;101793.75;680366;29;23675;-68
2022/01/21 01:04:56;;;;;;;3.75;3.65;;;;;;;1.29;51.41;101797.16;676542;29;92280;-68
2022/01/21 01:05:17;;;;;;;3.30;3.20;;;;;;;1.29;51.27;101802.47;676984;29;45266;-67
2022/01/21 01:05:38;;;;;;;3.17;3.08;;;;;;;1.29;51.28;101798.97;679206;29;21297;-68
2022/01/21 01:06:00;;;;;;;3.28;3.17;;;;;;;1.26;51.44;101787.53;678467;29;23747;-68
2022/01/21 01:06:22;;;;;;;3.30;3.20;;;;;;;1.28;51.02;101806.06;676288;29;1660;-68
2022/01/21 01:06:43;;;;;;;8.77;8.48;;;;;;;1.28;51.27;101800.75;674995;29;46325;-67
2022/01/21 01:07:04;;;;;;;19.52;18.80;;;;;;;1.29;51.30;101809.63;679196;29;23496;-67
2022/01/21 01:07:26;;;;;;;20.02;19.27;;;;;;;1.28;51.39;101807.88;679824;29;69471;-67
2022/01/21 01:07:49;;;;;;;16.05;15.45;;;;;;;1.27;51.37;101799.06;681479;28;20859;-67
2022/01/21 01:08:10;;;;;;;13.68;13.18;;;;;;;1.27;51.21;101799.06;679867;28;46304;-67
2022/01/21 01:08:31;;;;;;;10.95;10.55;;;;;;;1.25;51.41;101796.50;683016;28;23855;-67
2022/01/21 01:08:54;;;;;;;6.45;6.25;;;;;;;1.26;51.35;101800.00;682417;28;22371;-67
2022/01/21 01:09:15;;;;;;;5.75;5.55;;;;;;;1.22;51.40;101799.31;680412;28;90445;-67
2022/01/21 01:09:36;;;;;;;10.23;9.82;;;;;;;1.25;51.36;101803.59;682946;28;22406;-67
2022/01/21 01:10:00;;;;;;;17.73;17.02;;;;;;;1.25;51.56;101801.81;680072;29;23548;-67
2022/01/21 01:10:35;;;;;;;14.40;13.90;;;;;;;1.26;51.65;101794.66;679858;28;90307;-68
2022/01/21 01:11:19;;;;;;;10.02;9.73;;;;;;;1.29;51.40;101804.28;677956;28;160590;-67
2022/01/21 01:11:52;;;;;;;6.03;5.82;;;;;;;1.31;51.89;101802.38;677383;28;158747;-68
2022/01/21 01:12:20;;;;;;;3.67;3.58;;;;;;;1.23;51.86;101789.53;681599;28;135807;-67
2022/01/21 01:12:54;;;;;;;4.82;4.72;;;;;;;1.30;51.48;101790.00;679193;28;136277;-68
2022/01/21 01:19:58;;;;;;;16.30;15.70;;;;;;;1.21;51.43;101807.41;678447;28;137956;-68
2022/01/21 01:20:20;;;;;;;18.83;18.13;;;;;;;1.21;51.43;101802.06;679581;28;138922;-68
2022/01/21 01:20:43;;;;;;;17.88;17.25;;;;;;;1.22;51.37;101807.31;681562;28;67805;-68
2022/01/21 01:21:05;;;;;;;15.02;14.50;;;;;;;1.22;51.26;101803.78;681955;28;47463;-67
2022/01/21 01:21:27;;;;;;;7.13;6.93;;;;;;;1.20;51.40;101805.69;680913;28;67506;-67
2022/01/21 01:21:54;;;;;;;13.10;12.63;;;;;;;1.20;51.30;101801.19;682309;28;22373;-68
2022/01/21 01:22:17;;;;;;;15.20;14.70;;;;;;;1.22;51.32;101804.66;678743;28;137917;-67
2022/01/21 01:22:47;;;;;;;15.02;14.52;;;;;;;1.20;51.22;101808.34;681377;28;70571;-68
2022/01/21 01:23:21;;;;;;;15.60;15.00;;;;;;;1.17;51.36;101798.72;679280;28;135959;-68
2022/01/21 01:24:01;;;;;;;18.88;18.20;;;;;;;1.18;51.18;101808.44;680325;28;136001;-67
2022/01/21 01:27:44;;;;;;;38.05;36.35;;;;;;;1.13;51.28;101802.53;680708;28;138418;-67
2022/01/21 01:28:06;;;;;;;25.40;24.35;;;;;;;1.14;51.38;101801.56;681091;28;67513;-67
2022/01/21 01:28:27;;;;;;;35.78;34.20;;;;;;;1.15;51.29;101815.75;682021;28;45396;-67
2022/01/21 01:28:49;;;;;;;34.38;32.90;;;;;;;1.12;51.37;101799.94;679491;29;23481;-68
2022/01/21 01:29:10;;;;;;;32.17;30.85;;;;;;;1.17;51.46;101816.50;679345;29;46296;-67
2022/01/21 01:29:31;;;;;;;29.48;28.27;;;;;;;1.17;51.25;101805.84;680241;29;21543;-67
2022/01/21 01:29:52;;;;;;;26.63;25.52;;;;;;;1.15;51.11;101810.41;678075;29;22419;-68
2022/01/21 01:30:18;;;;;;;25.23;24.23;;;;;;;1.15;51.10;101815.75;679628;29;21321;-67
2022/01/21 01:30:39;;;;;;;37.45;35.83;;;;;;;1.14;51.19;101801.56;677447;28;137854;-67
2022/01/21 01:31:00;;;;;;;34.15;32.72;;;;;;;1.15;51.16;101802.44;680303;29;23450;-68
2022/01/21 01:31:21;;;;;;;30.38;29.17;;;;;;;1.14;51.22;101811.34;680064;29;22461;-68
2022/01/21 01:31:43;;;;;;;23.83;22.85;;;;;;;1.13;51.27;101823.81;679987;28;23469;-68
2022/01/21 01:32:06;;;;;;;18.95;18.25;;;;;;;1.14;51.11;101822.00;681617;28;46729;-68
2022/01/21 01:32:29;;;;;;;30.13;28.88;;;;;;;1.13;51.53;101823.81;681382;28;69185;-67
2022/01/21 01:32:53;;;;;;;26.40;25.35;;;;;;;1.11;51.10;101815.03;682300;28;69427;-67
2022/01/21 01:33:21;;;;;;;11.52;11.13;;;;;;;1.12;51.54;101824.75;683307;28;92009;-67
2022/01/21 01:33:43;;;;;;;4.82;4.72;;;;;;;1.13;51.27;101817.63;682061;28;136619;-67
2022/01/21 01:34:05;;;;;;;7.47;7.22;;;;;;;1.16;51.55;101820.09;684110;28;46462;-69
2022/01/21 01:34:26;;;;;;;14.70;14.20;;;;;;;1.15;51.24;101811.25;684726;28;46540;-67
2022/01/21 01:34:47;;;;;;;12.80;12.40;;;;;;;1.16;51.20;101812.13;685875;28;21531;-67
2022/01/21 01:35:10;;;;;;;10.77;10.45;;;;;;;1.17;51.26;101824.47;684674;28;22419;-68
2022/01/21 01:35:33;;;;;;;9.77;9.38;;;;;;;1.13;51.09;101813.16;680502;28;69695;-67
2022/01/21 01:35:55;;;;;;;7.20;7.00;;;;;;;1.16;51.14;101818.31;681003;28;67525;-67
2022/01/21 01:36:16;;;;;;;5.60;5.40;;;;;;;1.17;51.35;101814.69;678736;29;46431;-68
2022/01/21 01:36:38;;;;;;;3.92;3.83;;;;;;;1.18;51.38;101820.88;680614;28;22397;-67
2022/01/21 01:37:04;;;;;;;6.15;5.95;;;;;;;1.19;51.43;101812.81;677933;29;66385;-68
2022/01/21 01:37:37;;;;;;;5.55;5.45;;;;;;;1.19;51.35;101828.78;674861;28;138169;-66
2022/01/21 01:38:18;;;;;;;4.32;4.22;;;;;;;1.19;51.30;101817.25;676201;28;135993;-68
2022/01/21 01:39:02;;;;;;;4.03;3.92;;;;;;;1.15;51.28;101824.56;678761;28;137764;-67
2022/01/21 01:39:33;;;;;;;6.93;6.72;;;;;;;1.22;51.35;101814.41;680509;28;137687;-67
2022/01/21 01:40:11;;;;;;;4.65;4.55;;;;;;;1.23;51.16;101824.13;678723;28;137316;-68
2022/01/21 01:40:39;;;;;;;4.70;4.60;;;;;;;1.23;51.12;101817.00;678656;28;138119;-67
2022/01/21 01:41:05;;;;;;;10.80;10.50;;;;;;;1.22;50.99;101823.28;676325;29;137913;-65
2022/01/21 01:41:34;;;;;;;8.45;8.20;;;;;;;1.23;51.08;101810.81;675855;28;160998;-68
2022/01/21 01:42:11;;;;;;;5.93;5.72;;;;;;;1.24;51.12;101821.38;674837;28;137414;-67
2022/01/21 01:42:56;;;;;;;4.35;4.25;;;;;;;1.25;50.93;101808.91;677557;28;137488;-68
2022/01/21 01:49:33;;;;;;;1.38;1.38;;;;;;;1.28;50.68;101814.06;675937;29;135475;-67
2022/01/21 01:49:54;;;;;;;1.60;1.60;;;;;;;1.30;50.50;101817.50;679756;28;136809;-68
2022/01/21 01:50:15;;;;;;;1.38;1.38;;;;;;;1.31;50.34;101810.38;679493;29;22487;-68
2022/01/21 01:50:37;;;;;;;1.50;1.50;;;;;;;1.30;50.41;101812.19;677894;29;23478;-68
2022/01/21 01:51:00;;;;;;;1.40;1.40;;;;;;;1.30;50.41;101811.31;674447;29;46187;-68
2022/01/21 01:51:24;;;;;;;1.30;1.30;;;;;;;1.26;50.47;101813.31;673397;29;68426;-67
2022/01/21 01:51:46;;;;;;;1.13;1.13;;;;;;;1.29;50.49;101820.25;672509;29;92322;-67
2022/01/21 01:52:09;;;;;;;1.55;1.55;;;;;;;1.28;50.70;101813.22;675116;29;44384;-68
2022/01/21 01:52:31;;;;;;;1.77;1.77;;;;;;;1.27;50.62;101815.03;677611;29;69388;-67
2022/01/21 01:52:52;;;;;;;1.73;1.73;;;;;;;1.28;50.44;101808.72;680046;28;44406;-67
2022/01/21 01:53:14;;;;;;;1.40;1.40;;;;;;;1.26;50.29;101818.63;679740;28;45259;-68
2022/01/21 01:53:40;;;;;;;5.90;5.00;;;;;;;1.28;50.51;101803.41;675874;28;10724;-67
2022/01/21 01:54:08;;;;;;;3.53;3.17;;;;;;;1.29;50.41;101812.28;677955;28;139027;-67
2022/01/21 01:54:31;;;;;;;1.67;1.67;;;;;;;1.28;50.28;101805.22;677751;28;137928;-68
2022/01/21 01:54:55;;;;;;;3.00;2.90;;;;;;;1.28;50.34;101805.22;678690;29;68299;-67
2022/01/21 01:55:16;;;;;;;4.20;4.10;;;;;;;1.26;50.26;101813.31;676794;29;92596;-67
2022/01/21 01:55:38;;;;;;;5.35;5.18;;;;;;;1.21;50.26;101805.59;677362;29;22177;-67
2022/01/21 01:56:00;;;;;;;22.35;21.42;;;;;;;1.24;50.28;101799.25;674210;29;46728;-67
2022/01/21 01:56:25;;;;;;;25.63;24.63;;;;;;;1.26;50.37;101813.31;673946;29;46499;-67
2022/01/21 01:56:51;;;;;;;21.20;20.40;;;;;;;1.23;50.36;101797.50;671594;29;115053;-67
2022/01/21 01:57:12;;;;;;;17.23;16.55;;;;;;;1.24;50.55;101808.06;670820;29;137745;-68
2022/01/21 01:57:33;;;;;;;20.60;19.83;;;;;;;1.27;50.40;101807.03;675473;29;22159;-67
2022/01/21 01:57:54;;;;;;;28.90;27.70;;;;;;;1.27;50.50;101815.03;676388;29;45394;-67
2022/01/21 01:58:16;;;;;;;25.42;24.42;;;;;;;1.26;50.32;101813.31;679471;29;22398;-68
2022/01/21 01:58:39;;;;;;;22.67;21.77;;;;;;;1.26;50.40;101808.81;680158;29;22401;-71
2022/01/21 01:59:00;;;;;;;19.33;18.63;;;;;;;1.26;50.44;101808.81;677033;29;70343;-67
2022/01/21 01:59:21;;;;;;;16.90;16.30;;;;;;;1.26;50.35;101807.97;680924;29;23480;-67
2022/01/21 01:59:43;;;;;;;36.80;35.25;;;;;;;1.26;50.42;101800.00;682697;28;22419;-67
2022/01/21 02:00:06;;;;;;;43.80;41.90;;;;;;;1.25;50.47;101799.16;679470;29;46341;-67
2022/01/21 02:00:33;;;;;;;37.40;35.80;;;;;;;1.25;50.42;101792.94;676286;29;137504;-68
2022/01/21 02:00:56;;;;;;;34.47;33.08;;;;;;;1.24;50.46;101801.91;677293;29;22312;-68
2022/01/21 02:01:17;;;;;;;30.48;29.25;;;;;;;1.23;50.51;101798.38;675958;29;69395;-68
2022/01/21 02:01:40;;;;;;;25.85;24.85;;;;;;;1.26;50.42;101800.00;676769;29;22398;-68
2022/01/21 02:02:03;;;;;;;21.63;20.83;;;;;;;1.26;50.32;101792.00;676351;29;46378;-67
2022/01/21 02:02:25;;;;;;;30.48;29.20;;;;;;;1.27;50.37;101796.41;675095;29;92304;-65
2022/01/21 02:02:46;;;;;;;32.28;30.98;;;;;;;1.26;50.44;101798.19;676046;29;22374;-68
2022/01/21 02:03:09;;;;;;;29.80;28.60;;;;;;;1.26;50.15;101797.34;677720;29;21539;-67
2022/01/21 02:03:30;;;;;;;26.85;25.75;;;;;;;1.25;50.23;101799.16;675828;29;69394;-68
2022/01/21 02:03:51;;;;;;;23.13;22.23;;;;;;;1.28;50.42;101805.22;678896;29;22409;-67
2022/01/21 02:04:14;;;;;;;24.98;23.98;;;;;;;1.25;50.12;101799.16;678434;29;67491;-67
2022/01/21 02:04:36;;;;;;;34.25;32.78;;;;;;;1.25;50.25;101804.47;678670;29;46326;-68
2022/01/21 02:04:57;;;;;;;30.80;29.50;;;;;;;1.26;50.26;101800.00;678511;29;21393;-68
2022/01/21 02:05:19;;;;;;;27.00;25.90;;;;;;;1.21;50.38;101791.44;678487;29;22907;-67
2022/01/21 02:05:41;;;;;;;23.10;22.20;;;;;;;1.24;50.30;101799.25;677820;29;46196;-67
2022/01/21 02:06:02;;;;;;;30.17;28.95;;;;;;;1.24;50.34;101793.91;678064;29;43602;-67
2022/01/21 02:06:23;;;;;;;34.22;32.80;;;;;;;1.20;50.20;101793.22;676182;29;21526;-67
2022/01/21 02:06:45;;;;;;;30.80;29.50;;;;;;;1.22;50.17;101793.13;677441;29;23425;-68
2022/01/21 02:07:06;;;;;;;27.48;26.38;;;;;;;1.21;50.31;101794.94;679541;28;44983;-67
2022/01/21 02:07:28;;;;;;;24.48;23.48;;;;;;;1.22;50.34;101803.78;680172;29;35251;-68
2022/01/21 02:07:49;;;;;;;26.13;25.08;;;;;;;1.21;50.44;101794.94;680766;29;22410;-67
2022/01/21 02:08:11;;;;;;;35.60;34.08;;;;;;;1.20;50.09;101798.53;678527;29;22379;-67
2022/01/21 02:08:33;;;;;;;32.65;31.25;;;;;;;1.20;50.16;101798.53;677659;29;44386;-68
2022/01/21 02:08:54;;;;;;;29.50;28.30;;;;;;;1.19;50.15;101801.28;677996;29;45245;-67
2022/01/21 02:09:15;;;;;;;27.75;26.65;;;;;;;1.19;50.22;101795.97;677373;29;44368;-67
2022/01/21 02:09:39;;;;;;;34.33;32.85;;;;;;;1.20;50.05;101805.69;680130;29;22398;-67
2022/01/21 02:10:03;;;;;;;34.65;33.17;;;;;;;1.20;50.31;101818.97;677916;28;115153;-68
2022/01/21 02:10:24;;;;;;;29.10;27.92;;;;;;;1.19;50.35;101806.63;682058;28;46265;-68
2022/01/21 02:10:45;;;;;;;21.08;20.27;;;;;;;1.20;50.32;101803.00;682977;28;23478;-67
2022/01/21 02:11:06;;;;;;;25.08;24.08;;;;;;;1.19;50.44;101795.97;679592;29;22404;-67
2022/01/21 02:11:28;;;;;;;24.52;23.52;;;;;;;1.17;50.33;101793.41;676947;29;24177;-67
2022/01/21 02:11:50;;;;;;;20.45;19.65;;;;;;;1.19;50.28;101802.16;675630;29;46333;-68
2022/01/21 02:12:11;;;;;;;14.18;13.65;;;;;;;1.19;50.25;101804.84;676269;29;44218;-68
2022/01/21 02:12:32;;;;;;;7.45;7.25;;;;;;;1.20;50.23;101803.00;677205;29;21298;-67
2022/01/21 02:13:02;;;;;;;19.85;19.10;;;;;;;1.20;50.57;101789.72;677929;29;21567;-68
2022/01/21 02:13:27;;;;;;;22.83;21.92;;;;;;;1.19;50.08;101788.88;674753;29;137594;-67
2022/01/21 02:13:55;;;;;;;12.18;11.77;;;;;;;1.20;50.31;101800.34;677025;29;112804;-67
2022/01/21 02:14:22;;;;;;;12.82;12.40;;;;;;;1.19;50.22;101804.84;675637;29;137808;-67
2022/01/21 02:14:49;;;;;;;38.50;36.80;;;;;;;1.20;50.29;101795.88;671026;29;138106;-68